createdAt,value
2017-02-26T00:00:14.342Z,41.97
2017-02-26T00:01:24.915Z,41.68
2017-02-26T00:02:35.173Z,41.88
2017-02-26T00:03:45.431Z,41.49
2017-02-26T00:04:56.095Z,41.68
2017-02-26T00:06:06.367Z,41.78
2017-02-26T00:07:17.393Z,41.49
2017-02-26T00:08:27.672Z,41.68
2017-02-26T00:09:37.973Z,41.78
2017-02-26T00:10:48.650Z,41.78
2017-02-26T00:11:59.595Z,41.68
2017-02-26T00:13:10.368Z,41.78
2017-02-26T00:14:20.645Z,41.78
2017-02-26T00:15:31.314Z,41.78
2017-02-26T00:16:41.594Z,41.68
2017-02-26T00:17:51.778Z,41.68
2017-02-26T00:19:02.204Z,41.78
2017-02-26T00:20:12.473Z,41.59
2017-02-26T00:21:22.346Z,41.68
2017-02-26T00:22:33.013Z,41.68
2017-02-26T00:23:43.672Z,41.59
2017-02-26T00:24:54.580Z,41.59
2017-02-26T00:26:05.230Z,41.68
2017-02-26T00:27:15.500Z,41.68
2017-02-26T00:28:25.755Z,41.59
2017-02-26T00:29:36.029Z,41.59
2017-02-26T00:30:46.422Z,41.59
2017-02-26T00:31:57.071Z,41.59
2017-02-26T00:33:06.558Z,41.59
2017-02-26T00:34:16.822Z,41.39
2017-02-26T00:35:27.517Z,41.59
2017-02-26T00:36:37.889Z,41.59
2017-02-26T00:37:48.541Z,41.59
2017-02-26T00:38:59.217Z,41.59
2017-02-26T00:40:09.477Z,41.49
2017-02-26T00:41:18.984Z,41.68
2017-02-26T00:42:29.363Z,41.49
2017-02-26T00:43:40.009Z,41.49
2017-02-26T00:44:50.695Z,41.49
2017-02-26T00:46:00.960Z,41.68
2017-02-26T00:47:11.222Z,41.68
2017-02-26T00:48:21.251Z,41.49
2017-02-26T00:49:31.901Z,41.59
2017-02-26T00:50:42.180Z,41.39
2017-02-26T00:51:52.437Z,41.88
2017-02-26T00:53:03.111Z,41.88
2017-02-26T00:54:13.290Z,41.88
2017-02-26T00:55:23.563Z,41.39
2017-02-26T00:56:33.847Z,41.59
2017-02-26T00:57:43.735Z,41.78
2017-02-26T00:58:54.006Z,41.68
2017-02-26T01:00:04.512Z,41.88
2017-02-26T01:01:15.165Z,41.97
2017-02-26T01:02:25.467Z,41.97
2017-02-26T01:03:36.142Z,41.88
2017-02-26T01:04:46.475Z,41.68
2017-02-26T01:05:57.058Z,41.68
2017-02-26T01:07:06.929Z,41.59
2017-02-26T01:08:17.589Z,41.78
2017-02-26T01:09:28.256Z,41.59
2017-02-26T01:10:37.740Z,41.68
2017-02-26T01:11:47.492Z,41.97
2017-02-26T01:12:58.181Z,41.59
2017-02-26T01:14:08.441Z,41.59
2017-02-26T01:15:18.326Z,41.59
2017-02-26T01:16:28.981Z,41.59
2017-02-26T01:17:39.414Z,41.59
2017-02-26T01:18:50.074Z,41.59
2017-02-26T01:20:00.731Z,41.59
2017-02-26T01:21:11.394Z,41.59
2017-02-26T01:22:21.663Z,41.59
2017-02-26T01:23:31.695Z,41.59
2017-02-26T01:24:41.961Z,41.68
2017-02-26T01:25:52.216Z,41.78
2017-02-26T01:27:03.188Z,41.78
2017-02-26T01:28:13.060Z,41.68
2017-02-26T01:29:23.967Z,41.68
2017-02-26T01:30:33.841Z,41.68
2017-02-26T01:31:44.121Z,41.88
2017-02-26T01:32:54.790Z,41.88
2017-02-26T01:34:05.435Z,41.78
2017-02-26T01:35:15.852Z,41.59
2017-02-26T01:36:26.117Z,41.78
2017-02-26T01:37:36.765Z,41.59
2017-02-26T01:38:47.413Z,41.78
2017-02-26T01:39:58.130Z,41.78
2017-02-26T01:41:07.730Z,41.68
2017-02-26T01:42:18.385Z,41.68
2017-02-26T01:43:28.284Z,41.68
2017-02-26T01:44:38.563Z,41.68
2017-02-26T01:45:48.442Z,41.68
2017-02-26T01:46:59.242Z,41.68
2017-02-26T01:48:09.508Z,41.68
2017-02-26T01:49:20.191Z,41.68
2017-02-26T01:50:30.884Z,41.68
2017-02-26T01:51:41.560Z,41.68
2017-02-26T01:52:52.366Z,41.68
2017-02-26T01:54:02.639Z,41.78
2017-02-26T01:55:13.295Z,41.78
2017-02-26T01:56:23.556Z,41.59
2017-02-26T01:57:34.206Z,41.68
2017-02-26T01:58:45.500Z,41.59
2017-02-26T01:59:56.178Z,41.59
2017-02-26T02:01:06.436Z,41.78
2017-02-26T02:02:16.315Z,41.78
2017-02-26T02:03:26.593Z,41.68
2017-02-26T02:04:37.591Z,41.68
2017-02-26T02:05:48.238Z,41.68
2017-02-26T02:06:58.894Z,41.59
2017-02-26T02:08:09.164Z,41.97
2017-02-26T02:09:19.076Z,41.59
2017-02-26T02:10:29.504Z,41.78
2017-02-26T02:11:39.758Z,41.68
2017-02-26T02:12:50.425Z,41.59
2017-02-26T02:14:01.083Z,41.88
2017-02-26T02:15:11.358Z,41.78
2017-02-26T02:16:21.318Z,41.88
2017-02-26T02:17:30.416Z,41.97
2017-02-26T02:18:40.664Z,41.88
2017-02-26T02:19:50.942Z,41.78
2017-02-26T02:21:01.232Z,41.68
2017-02-26T02:22:11.421Z,41.88
2017-02-26T02:23:21.685Z,41.88
2017-02-26T02:24:31.949Z,41.88
2017-02-26T02:25:42.618Z,41.78
2017-02-26T02:26:52.898Z,41.88
2017-02-26T02:28:03.710Z,42.36
2017-02-26T02:29:13.981Z,41.78
2017-02-26T02:30:24.631Z,41.78
2017-02-26T02:31:35.301Z,41.78
2017-02-26T02:32:45.179Z,41.78
2017-02-26T02:33:56.167Z,41.66
2017-02-26T02:35:06.041Z,41.78
2017-02-26T02:36:16.328Z,42.26
2017-02-26T02:37:26.586Z,41.68
2017-02-26T02:38:36.494Z,42.07
2017-02-26T02:39:47.489Z,41.78
2017-02-26T02:40:57.372Z,41.86
2017-02-26T02:42:06.864Z,41.88
2017-02-26T02:43:17.549Z,42.26
2017-02-26T02:44:27.820Z,42.16
2017-02-26T02:45:38.646Z,41.59
2017-02-26T02:46:48.538Z,41.78
2017-02-26T02:47:58.796Z,41.76
2017-02-26T02:49:09.450Z,41.95
2017-02-26T02:50:20.107Z,41.66
2017-02-26T02:51:30.497Z,41.78
2017-02-26T02:52:40.788Z,41.59
2017-02-26T02:53:51.450Z,41.68
2017-02-26T02:55:02.130Z,42.16
2017-02-26T02:56:12.796Z,41.68
2017-02-26T02:57:23.409Z,41.59
2017-02-26T02:58:34.086Z,41.78
2017-02-26T02:59:44.361Z,42.14
2017-02-26T03:00:55.017Z,41.66
2017-02-26T03:02:05.660Z,41.86
2017-02-26T03:03:16.475Z,41.86
2017-02-26T03:04:25.967Z,41.56
2017-02-26T03:05:36.240Z,41.66
2017-02-26T03:06:46.499Z,41.76
2017-02-26T03:07:56.009Z,41.68
2017-02-26T03:09:06.921Z,41.95
2017-02-26T03:10:16.815Z,41.68
2017-02-26T03:11:26.717Z,41.97
2017-02-26T03:12:37.379Z,41.76
2017-02-26T03:13:47.660Z,41.76
2017-02-26T03:14:58.190Z,41.95
2017-02-26T03:16:08.488Z,41.49
2017-02-26T03:17:18.792Z,41.49
2017-02-26T03:18:29.057Z,41.97
2017-02-26T03:19:39.711Z,42.05
2017-02-26T03:20:50.140Z,42.14
2017-02-26T03:22:00.397Z,42.07
2017-02-26T03:23:11.076Z,42.05
2017-02-26T03:24:21.785Z,41.68
2017-02-26T03:25:32.438Z,41.78
2017-02-26T03:26:42.997Z,41.56
2017-02-26T03:27:53.647Z,41.76
2017-02-26T03:29:04.308Z,41.86
2017-02-26T03:30:14.578Z,41.88
2017-02-26T03:31:24.460Z,42.14
2017-02-26T03:32:34.902Z,42.05
2017-02-26T03:33:45.157Z,41.66
2017-02-26T03:34:55.831Z,41.78
2017-02-26T03:36:06.478Z,41.76
2017-02-26T03:37:17.136Z,41.66
2017-02-26T03:38:27.894Z,41.66
2017-02-26T03:39:38.563Z,41.47
2017-02-26T03:40:49.227Z,42.05
2017-02-26T03:41:59.884Z,41.78
2017-02-26T03:43:10.177Z,41.97
2017-02-26T03:44:19.978Z,41.76
2017-02-26T03:45:29.850Z,41.66
2017-02-26T03:46:39.336Z,41.76
2017-02-26T03:47:49.983Z,41.76
2017-02-26T03:49:00.644Z,41.97
2017-02-26T03:50:11.482Z,41.95
2017-02-26T03:51:21.757Z,41.95
2017-02-26T03:52:31.274Z,41.76
2017-02-26T03:53:41.536Z,41.95
2017-02-26T03:54:51.806Z,41.66
2017-02-26T03:56:02.186Z,41.86
2017-02-26T03:57:12.454Z,41.66
2017-02-26T03:58:22.324Z,42.05
2017-02-26T03:59:32.193Z,42.05
2017-02-26T04:00:42.459Z,41.76
2017-02-26T04:01:52.962Z,41.56
2017-02-26T04:03:03.259Z,41.97
2017-02-26T04:04:13.541Z,41.59
2017-02-26T04:05:23.817Z,41.66
2017-02-26T04:06:34.089Z,42.05
2017-02-26T04:07:44.852Z,41.76
2017-02-26T04:08:55.121Z,41.68
2017-02-26T04:10:05.789Z,42.05
2017-02-26T04:11:16.092Z,41.66
2017-02-26T04:12:26.764Z,42.24
2017-02-26T04:13:37.129Z,41.78
2017-02-26T04:14:46.224Z,41.97
2017-02-26T04:15:56.497Z,41.95
2017-02-26T04:17:06.770Z,41.78
2017-02-26T04:18:17.034Z,41.95
2017-02-26T04:19:27.795Z,41.95
2017-02-26T04:20:37.663Z,41.68
2017-02-26T04:21:48.318Z,41.76
2017-02-26T04:22:57.794Z,41.76
2017-02-26T04:24:08.464Z,42.07
2017-02-26T04:25:18.839Z,41.95
2017-02-26T04:26:29.510Z,42.26
2017-02-26T04:27:40.157Z,41.86
2017-02-26T04:28:50.886Z,41.78
2017-02-26T04:30:01.204Z,41.66
2017-02-26T04:31:11.787Z,41.66
2017-02-26T04:32:22.052Z,42.05
2017-02-26T04:33:32.717Z,41.78
2017-02-26T04:34:43.389Z,41.68
2017-02-26T04:35:54.046Z,41.86
2017-02-26T04:37:04.463Z,41.66
2017-02-26T04:38:14.731Z,41.97
2017-02-26T04:39:25.407Z,41.56
2017-02-26T04:40:36.070Z,41.95
2017-02-26T04:41:45.960Z,41.56
2017-02-26T04:42:56.562Z,41.95
2017-02-26T04:44:06.436Z,41.76
2017-02-26T04:45:17.127Z,41.66
2017-02-26T04:46:27.793Z,42.05
2017-02-26T04:47:38.056Z,41.95
2017-02-26T04:48:48.501Z,41.95
2017-02-26T04:49:58.782Z,41.76
2017-02-26T04:51:09.053Z,41.56
2017-02-26T04:52:19.716Z,41.66
2017-02-26T04:53:29.607Z,41.76
2017-02-26T04:54:40.229Z,41.76
2017-02-26T04:55:50.887Z,41.86
2017-02-26T04:57:01.149Z,41.86
2017-02-26T04:58:11.833Z,41.76
2017-02-26T04:59:22.111Z,41.76
2017-02-26T05:00:33.022Z,41.86
2017-02-26T05:01:42.904Z,42.16
2017-02-26T05:02:53.570Z,41.76
2017-02-26T05:04:03.831Z,41.66
2017-02-26T05:05:13.772Z,42.05
2017-02-26T05:06:24.676Z,41.76
2017-02-26T05:07:35.327Z,41.76
2017-02-26T05:08:45.604Z,42.14
2017-02-26T05:09:56.285Z,41.86
2017-02-26T05:11:06.164Z,41.76
2017-02-26T05:12:17.065Z,41.76
2017-02-26T05:13:27.715Z,41.86
2017-02-26T05:14:37.993Z,42.14
2017-02-26T05:15:47.478Z,42.14
2017-02-26T05:16:57.348Z,41.86
2017-02-26T05:18:07.478Z,41.86
2017-02-26T05:19:18.129Z,41.86
2017-02-26T05:20:28.785Z,41.86
2017-02-26T05:21:39.085Z,41.76
2017-02-26T05:22:49.371Z,42.24
2017-02-26T05:23:59.787Z,42.14
2017-02-26T05:25:10.437Z,41.86
2017-02-26T05:26:20.370Z,41.76
2017-02-26T05:27:29.858Z,41.86
2017-02-26T05:28:40.520Z,41.86
2017-02-26T05:29:51.036Z,42.24
2017-02-26T05:31:01.697Z,41.86
2017-02-26T05:32:11.960Z,42.24
2017-02-26T05:33:22.222Z,41.76
2017-02-26T05:34:32.884Z,41.86
2017-02-26T05:35:43.521Z,41.86
2017-02-26T05:36:53.802Z,41.56
2017-02-26T05:38:03.312Z,41.56
2017-02-26T05:39:13.970Z,41.76
2017-02-26T05:40:23.869Z,41.56
2017-02-26T05:41:33.643Z,41.66
2017-02-26T05:42:43.915Z,41.76
2017-02-26T05:43:54.563Z,41.95
2017-02-26T05:45:04.449Z,41.47
2017-02-26T05:46:15.123Z,41.66
2017-02-26T05:47:25.140Z,41.56
2017-02-26T05:48:35.006Z,41.47
2017-02-26T05:49:45.726Z,41.2
2017-02-26T05:50:56.377Z,41.2
2017-02-26T05:52:06.677Z,41.11
2017-02-26T05:53:17.714Z,40.91
2017-02-26T05:54:28.386Z,40.91
2017-02-26T05:55:39.034Z,40.72
2017-02-26T05:56:49.291Z,40.63
2017-02-26T05:57:59.215Z,40.53
2017-02-26T05:59:09.671Z,40.53
2017-02-26T06:00:19.575Z,40.53
2017-02-26T06:01:30.427Z,40.74
2017-02-26T06:02:41.093Z,40.64
2017-02-26T06:03:51.359Z,40.26
2017-02-26T06:05:02.790Z,40.26
2017-02-26T06:06:13.440Z,40.45
2017-02-26T06:07:23.713Z,39.87
2017-02-26T06:08:34.382Z,39.78
2017-02-26T06:09:44.655Z,39.89
2017-02-26T06:10:55.477Z,39.7
2017-02-26T06:12:05.735Z,39.61
2017-02-26T06:13:15.618Z,39.51
2017-02-26T06:14:25.502Z,39.41
2017-02-26T06:15:36.183Z,39.22
2017-02-26T06:16:47.020Z,39.31
2017-02-26T06:17:57.300Z,39.31
2017-02-26T06:19:06.792Z,39.51
2017-02-26T06:20:16.672Z,38.83
2017-02-26T06:21:27.325Z,39.12
2017-02-26T06:22:37.785Z,38.83
2017-02-26T06:23:47.667Z,39.04
2017-02-26T06:24:58.638Z,39.43
2017-02-26T06:26:08.944Z,39.43
2017-02-26T06:27:19.610Z,38.95
2017-02-26T06:28:30.158Z,38.76
2017-02-26T06:29:40.431Z,38.85
2017-02-26T06:30:50.713Z,38.46
2017-02-26T06:32:00.999Z,38.56
2017-02-26T06:33:12.193Z,38.49
2017-02-26T06:34:23.022Z,38.37
2017-02-26T06:35:33.676Z,38.29
2017-02-26T06:36:43.554Z,38.1
2017-02-26T06:37:54.207Z,38.39
2017-02-26T06:39:04.874Z,38.29
2017-02-26T06:40:15.700Z,38.29
2017-02-26T06:41:25.972Z,38.49
2017-02-26T06:42:36.244Z,38.58
2017-02-26T06:43:46.130Z,38.39
2017-02-26T06:44:56.788Z,38.29
2017-02-26T06:46:07.392Z,38.49
2017-02-26T06:47:16.914Z,38.29
2017-02-26T06:48:27.592Z,38.2
2017-02-26T06:49:37.464Z,38.29
2017-02-26T06:50:47.743Z,38.21
2017-02-26T06:51:59.004Z,38.21
2017-02-26T06:53:09.289Z,38.12
2017-02-26T06:54:19.576Z,38.12
2017-02-26T06:55:30.235Z,38.12
2017-02-26T06:56:40.505Z,38.12
2017-02-26T06:57:50.550Z,38.12
2017-02-26T06:59:01.210Z,38.21
2017-02-26T07:00:11.876Z,38.12
2017-02-26T07:01:22.164Z,37.93
2017-02-26T07:02:32.450Z,37.73
2017-02-26T07:03:43.071Z,37.73
2017-02-26T07:04:52.545Z,37.93
2017-02-26T07:06:03.193Z,37.73
2017-02-26T07:07:13.101Z,37.83
2017-02-26T07:08:23.413Z,37.83
2017-02-26T07:09:33.443Z,37.83
2017-02-26T07:10:43.317Z,37.93
2017-02-26T07:11:53.190Z,38.04
2017-02-26T07:13:03.473Z,37.85
2017-02-26T07:14:15.041Z,37.85
2017-02-26T07:15:26.472Z,37.65
2017-02-26T07:16:36.815Z,37.65
2017-02-26T07:17:46.840Z,37.75
2017-02-26T07:18:57.576Z,37.75
2017-02-26T07:20:08.232Z,37.85
2017-02-26T07:21:19.363Z,37.75
2017-02-26T07:22:29.237Z,37.75
2017-02-26T07:23:39.518Z,37.75
2017-02-26T07:24:50.187Z,37.75
2017-02-26T07:26:00.451Z,37.85
2017-02-26T07:27:10.985Z,38.04
2017-02-26T07:28:21.651Z,38.14
2017-02-26T07:29:32.311Z,38.43
2017-02-26T07:30:42.616Z,38.33
2017-02-26T07:31:52.508Z,38.62
2017-02-26T07:33:03.337Z,38.33
2017-02-26T07:34:13.628Z,38.21
2017-02-26T07:35:23.514Z,38.31
2017-02-26T07:36:33.773Z,38.31
2017-02-26T07:37:44.033Z,38.12
2017-02-26T07:38:53.777Z,38.21
2017-02-26T07:40:04.073Z,38.6
2017-02-26T07:41:14.361Z,38.7
2017-02-26T07:42:24.536Z,38.6
2017-02-26T07:43:35.222Z,38.7
2017-02-26T07:44:46.245Z,38.7
2017-02-26T07:45:56.112Z,38.99
2017-02-26T07:47:06.694Z,39.37
2017-02-26T07:48:16.961Z,39.47
2017-02-26T07:49:27.608Z,39.47
2017-02-26T07:50:38.132Z,39.09
2017-02-26T07:51:48.395Z,38.99
2017-02-26T07:52:58.268Z,38.79
2017-02-26T07:54:08.938Z,39.66
2017-02-26T07:55:18.823Z,39.57
2017-02-26T07:56:29.183Z,39.57
2017-02-26T07:57:39.857Z,39.57
2017-02-26T07:58:50.520Z,39.64
2017-02-26T08:00:00.799Z,39.47
2017-02-26T08:01:11.469Z,39.45
2017-02-26T08:02:21.618Z,39.45
2017-02-26T08:03:31.882Z,39.16
2017-02-26T08:04:42.557Z,39.45
2017-02-26T08:05:52.828Z,39.26
2017-02-26T08:07:02.328Z,39.64
2017-02-26T08:08:12.323Z,39.74
2017-02-26T08:09:22.622Z,39.54
2017-02-26T08:10:32.915Z,39.54
2017-02-26T08:11:43.596Z,39.94
2017-02-26T08:12:53.894Z,39.64
2017-02-26T08:14:04.910Z,39.74
2017-02-26T08:15:15.585Z,39.74
2017-02-26T08:16:25.844Z,39.94
2017-02-26T08:17:35.742Z,39.84
2017-02-26T08:18:45.631Z,39.74
2017-02-26T08:19:55.765Z,39.74
2017-02-26T08:21:06.090Z,39.74
2017-02-26T08:22:16.360Z,39.74
2017-02-26T08:23:26.633Z,39.94
2017-02-26T08:24:37.300Z,39.74
2017-02-26T08:25:47.657Z,39.64
2017-02-26T08:26:57.917Z,39.84
2017-02-26T08:28:07.823Z,39.74
2017-02-26T08:29:18.496Z,39.64
2017-02-26T08:30:29.181Z,39.74
2017-02-26T08:31:39.705Z,39.74
2017-02-26T08:32:50.385Z,39.74
2017-02-26T08:34:00.688Z,39.64
2017-02-26T08:35:10.970Z,39.94
2017-02-26T08:36:21.225Z,39.94
2017-02-26T08:37:31.384Z,39.94
2017-02-26T08:38:41.263Z,39.94
2017-02-26T08:39:51.527Z,39.84
2017-02-26T08:41:01.431Z,40.03
2017-02-26T08:42:11.704Z,39.74
2017-02-26T08:43:22.645Z,40.03
2017-02-26T08:44:32.835Z,40.42
2017-02-26T08:45:43.517Z,40.51
2017-02-26T08:46:53.388Z,40.42
2017-02-26T08:48:04.056Z,40.3
2017-02-26T08:49:14.679Z,40.3
2017-02-26T08:50:24.947Z,40.3
2017-02-26T08:51:34.448Z,40.3
2017-02-26T08:52:44.723Z,40.3
2017-02-26T08:53:54.986Z,40.59
2017-02-26T08:55:05.574Z,40.49
2017-02-26T08:56:15.843Z,40.12
2017-02-26T08:57:26.106Z,40.12
2017-02-26T08:58:36.414Z,40.11
2017-02-26T08:59:46.692Z,40.03
2017-02-26T09:00:57.681Z,39.84
2017-02-26T09:02:07.933Z,39.94
2017-02-26T09:03:18.192Z,40.2
2017-02-26T09:04:28.506Z,40.01
2017-02-26T09:05:39.164Z,40.49
2017-02-26T09:06:50.175Z,40.59
2017-02-26T09:08:00.735Z,40.49
2017-02-26T09:09:11.399Z,40.49
2017-02-26T09:10:21.288Z,40.59
2017-02-26T09:11:31.565Z,40.61
2017-02-26T09:12:42.547Z,40.39
2017-02-26T09:13:53.225Z,40.49
2017-02-26T09:15:03.893Z,40.3
2017-02-26T09:16:14.576Z,40.39
2017-02-26T09:17:24.481Z,40.3
2017-02-26T09:18:36.273Z,40.39
2017-02-26T09:19:46.574Z,40.39
2017-02-26T09:20:56.862Z,40.3
2017-02-26T09:22:06.735Z,40.39
2017-02-26T09:23:17.012Z,40.49
2017-02-26T09:24:26.850Z,40.39
2017-02-26T09:25:37.553Z,40.39
2017-02-26T09:26:47.835Z,40.39
2017-02-26T09:27:58.119Z,40.39
2017-02-26T09:29:08.386Z,40.2
2017-02-26T09:30:18.529Z,40.3
2017-02-26T09:31:28.818Z,40.39
2017-02-26T09:32:38.314Z,40.49
2017-02-26T09:33:48.582Z,40.59
2017-02-26T09:34:58.919Z,40.49
2017-02-26T09:36:08.778Z,40.49
2017-02-26T09:37:19.440Z,40.01
2017-02-26T09:38:30.096Z,40.01
2017-02-26T09:39:39.995Z,39.91
2017-02-26T09:40:50.273Z,39.91
2017-02-26T09:42:00.283Z,40.11
2017-02-26T09:43:10.553Z,40.11
2017-02-26T09:44:21.226Z,40.01
2017-02-26T09:45:31.518Z,39.82
2017-02-26T09:46:41.799Z,40.01
2017-02-26T09:47:52.766Z,39.91
2017-02-26T09:49:02.269Z,39.91
2017-02-26T09:50:12.178Z,39.82
2017-02-26T09:51:22.833Z,39.72
2017-02-26T09:52:33.132Z,39.72
2017-02-26T09:53:44.051Z,39.72
2017-02-26T09:54:53.538Z,39.82
2017-02-26T09:56:03.808Z,39.91
2017-02-26T09:57:14.491Z,39.53
2017-02-26T09:58:24.381Z,39.74
2017-02-26T09:59:34.898Z,39.72
2017-02-26T10:00:45.169Z,39.72
2017-02-26T10:01:55.446Z,39.72
2017-02-26T10:03:06.104Z,39.54
2017-02-26T10:04:15.989Z,39.53
2017-02-26T10:05:26.528Z,39.45
2017-02-26T10:06:36.849Z,39.45
2017-02-26T10:07:47.126Z,39.45
2017-02-26T10:08:57.447Z,39.54
2017-02-26T10:10:07.737Z,39.26
2017-02-26T10:11:18.533Z,39.26
2017-02-26T10:12:28.844Z,39.45
2017-02-26T10:13:38.764Z,39.14
2017-02-26T10:14:49.035Z,39.43
2017-02-26T10:15:59.707Z,39.62
2017-02-26T10:17:10.353Z,39.64
2017-02-26T10:18:20.634Z,39.82
2017-02-26T10:19:31.297Z,39.72
2017-02-26T10:20:41.982Z,39.72
2017-02-26T10:21:52.255Z,39.72
2017-02-26T10:23:03.177Z,39.91
2017-02-26T10:24:13.444Z,39.72
2017-02-26T10:25:22.968Z,39.91
2017-02-26T10:26:33.653Z,40.11
2017-02-26T10:27:43.930Z,39.91
2017-02-26T10:28:54.328Z,39.91
2017-02-26T10:30:05.004Z,39.82
2017-02-26T10:31:15.268Z,40.01
2017-02-26T10:32:25.558Z,39.91
2017-02-26T10:33:35.058Z,39.91
2017-02-26T10:34:45.456Z,40.01
2017-02-26T10:35:55.780Z,40.01
2017-02-26T10:37:06.450Z,39.91
2017-02-26T10:38:17.154Z,39.91
2017-02-26T10:39:27.458Z,39.82
2017-02-26T10:40:38.125Z,39.82
2017-02-26T10:41:47.625Z,40.01
2017-02-26T10:42:57.935Z,40.01
2017-02-26T10:44:07.825Z,40.01
2017-02-26T10:45:18.492Z,39.91
2017-02-26T10:46:28.734Z,39.82
2017-02-26T10:47:39.421Z,40.01
2017-02-26T10:48:49.722Z,39.82
2017-02-26T10:50:00.399Z,40.01
2017-02-26T10:51:10.346Z,39.72
2017-02-26T10:52:20.795Z,40.01
2017-02-26T10:53:30.700Z,40.01
2017-02-26T10:54:41.420Z,39.91
2017-02-26T10:55:52.095Z,39.91
2017-02-26T10:57:02.034Z,39.91
2017-02-26T10:58:12.960Z,39.72
2017-02-26T10:59:23.633Z,40.01
2017-02-26T11:00:34.319Z,39.72
2017-02-26T11:01:44.987Z,39.72
2017-02-26T11:02:55.271Z,39.72
2017-02-26T11:04:06.189Z,39.72
2017-02-26T11:05:16.087Z,39.72
2017-02-26T11:06:26.388Z,39.82
2017-02-26T11:07:36.664Z,39.62
2017-02-26T11:08:46.548Z,39.62
2017-02-26T11:09:56.677Z,39.24
2017-02-26T11:11:07.351Z,39.24
2017-02-26T11:12:17.619Z,39.24
2017-02-26T11:13:27.511Z,39.34
2017-02-26T11:14:37.399Z,39.34
2017-02-26T11:15:47.557Z,39.24
2017-02-26T11:16:57.818Z,39.14
2017-02-26T11:18:08.506Z,39.43
2017-02-26T11:19:19.176Z,39.43
2017-02-26T11:20:29.830Z,39.24
2017-02-26T11:21:40.361Z,39.53
2017-02-26T11:22:51.023Z,39.53
2017-02-26T11:24:01.679Z,39.62
2017-02-26T11:25:11.946Z,39.62
2017-02-26T11:26:22.610Z,39.53
2017-02-26T11:27:33.576Z,39.53
2017-02-26T11:28:43.843Z,39.24
2017-02-26T11:29:54.163Z,39.24
2017-02-26T11:31:04.058Z,39.34
2017-02-26T11:32:14.712Z,39.14
2017-02-26T11:33:25.733Z,39.43
2017-02-26T11:34:36.395Z,39.24
2017-02-26T11:35:46.682Z,39.53
2017-02-26T11:36:56.957Z,39.43
2017-02-26T11:38:07.248Z,39.43
2017-02-26T11:39:17.678Z,39.34
2017-02-26T11:40:27.962Z,39.53
2017-02-26T11:41:37.477Z,39.43
2017-02-26T11:42:48.131Z,39.45
2017-02-26T11:43:58.031Z,39.34
2017-02-26T11:45:08.461Z,39.53
2017-02-26T11:46:19.108Z,39.53
2017-02-26T11:47:29.016Z,39.62
2017-02-26T11:48:39.296Z,39.04
2017-02-26T11:49:49.574Z,38.95
2017-02-26T11:51:00.114Z,39.16
2017-02-26T11:52:10.764Z,38.97
2017-02-26T11:53:21.031Z,38.87
2017-02-26T11:54:31.685Z,38.87
2017-02-26T11:55:42.364Z,38.87
2017-02-26T11:56:53.198Z,39.06
2017-02-26T11:58:03.463Z,38.87
2017-02-26T11:59:14.424Z,39.16
2017-02-26T12:00:25.081Z,39.06
2017-02-26T12:01:35.348Z,39.06
2017-02-26T12:02:46.469Z,39.06
2017-02-26T12:03:56.363Z,38.97
2017-02-26T12:05:05.863Z,39.16
2017-02-26T12:06:16.510Z,38.87
2017-02-26T12:07:27.184Z,39.06
2017-02-26T12:08:37.220Z,39.06
2017-02-26T12:09:47.487Z,38.97
2017-02-26T12:10:58.151Z,38.97
2017-02-26T12:12:08.083Z,38.97
2017-02-26T12:13:17.973Z,39.06
2017-02-26T12:14:28.102Z,38.87
2017-02-26T12:15:38.744Z,39.16
2017-02-26T12:16:49.028Z,39.36
2017-02-26T12:17:58.925Z,38.87
2017-02-26T12:19:09.202Z,38.97
2017-02-26T12:20:20.025Z,39.06
2017-02-26T12:21:30.292Z,39.26
2017-02-26T12:22:40.191Z,39.16
2017-02-26T12:23:50.079Z,38.97
2017-02-26T12:25:00.743Z,38.97
2017-02-26T12:26:10.722Z,38.97
2017-02-26T12:27:21.012Z,39.06
2017-02-26T12:28:31.715Z,39.06
2017-02-26T12:29:42.370Z,39.06
2017-02-26T12:30:52.661Z,39.16
2017-02-26T12:32:03.646Z,38.95
2017-02-26T12:33:13.538Z,39.24
2017-02-26T12:34:24.199Z,39.53
2017-02-26T12:35:34.491Z,39.53
2017-02-26T12:36:44.760Z,39.53
2017-02-26T12:37:55.905Z,39.34
2017-02-26T12:39:06.180Z,39.53
2017-02-26T12:40:16.067Z,39.54
2017-02-26T12:41:26.723Z,39.53
2017-02-26T12:42:37.381Z,39.62
2017-02-26T12:43:47.875Z,39.43
2017-02-26T12:44:58.546Z,39.24
2017-02-26T12:46:08.842Z,39.43
2017-02-26T12:47:19.124Z,39.04
2017-02-26T12:48:29.046Z,39.43
2017-02-26T12:49:40.047Z,39.34
2017-02-26T12:50:50.710Z,39.53
2017-02-26T12:52:00.984Z,39.62
2017-02-26T12:53:11.673Z,39.43
2017-02-26T12:54:21.954Z,39.43
2017-02-26T12:55:31.292Z,39.43
2017-02-26T12:56:41.572Z,39.24
2017-02-26T12:57:51.474Z,39.34
2017-02-26T12:59:01.740Z,39.43
2017-02-26T13:00:12.408Z,39.34
2017-02-26T13:01:23.784Z,39.43
2017-02-26T13:02:33.279Z,39.53
2017-02-26T13:03:43.535Z,39.43
2017-02-26T13:04:53.804Z,39.43
2017-02-26T13:06:04.107Z,39.53
2017-02-26T13:07:14.946Z,39.53
2017-02-26T13:08:25.621Z,39.43
2017-02-26T13:09:35.881Z,39.43
2017-02-26T13:10:45.762Z,39.43
2017-02-26T13:11:56.052Z,39.53
2017-02-26T13:13:06.691Z,39.43
2017-02-26T13:14:16.585Z,39.43
2017-02-26T13:15:27.242Z,39.53
2017-02-26T13:16:37.160Z,39.43
2017-02-26T13:17:47.055Z,39.62
2017-02-26T13:18:56.702Z,39.34
2017-02-26T13:20:07.368Z,39.43
2017-02-26T13:21:17.625Z,39.43
2017-02-26T13:22:27.884Z,39.43
2017-02-26T13:23:38.567Z,39.43
2017-02-26T13:24:49.078Z,39.43
2017-02-26T13:25:59.341Z,39.43
2017-02-26T13:27:09.240Z,39.43
2017-02-26T13:28:19.517Z,39.53
2017-02-26T13:29:29.407Z,39.43
2017-02-26T13:30:39.416Z,39.53
2017-02-26T13:31:49.666Z,39.43
2017-02-26T13:32:59.948Z,39.62
2017-02-26T13:34:10.620Z,39.43
2017-02-26T13:35:21.322Z,39.34
2017-02-26T13:36:32.272Z,39.34
2017-02-26T13:37:42.146Z,39.43
2017-02-26T13:38:53.080Z,39.43
2017-02-26T13:40:02.969Z,39.43
2017-02-26T13:41:12.872Z,39.34
2017-02-26T13:42:23.400Z,39.53
2017-02-26T13:43:34.046Z,39.43
2017-02-26T13:44:43.569Z,39.43
2017-02-26T13:45:54.242Z,39.43
2017-02-26T13:47:04.148Z,39.43
2017-02-26T13:48:15.167Z,39.24
2017-02-26T13:49:25.851Z,39.34
2017-02-26T13:50:35.754Z,39.62
2017-02-26T13:51:45.653Z,39.62
2017-02-26T13:52:55.919Z,39.62
2017-02-26T13:54:06.447Z,39.34
2017-02-26T13:55:17.111Z,39.53
2017-02-26T13:56:27.432Z,39.53
2017-02-26T13:57:37.784Z,39.24
2017-02-26T13:58:47.664Z,39.43
2017-02-26T13:59:58.629Z,39.24
2017-02-26T14:01:08.507Z,39.53
2017-02-26T14:02:18.779Z,39.24
2017-02-26T14:03:28.661Z,39.24
2017-02-26T14:04:39.000Z,39.24
2017-02-26T14:05:49.379Z,39.53
2017-02-26T14:07:00.036Z,39.43
2017-02-26T14:08:10.727Z,39.34
2017-02-26T14:09:20.630Z,39.43
2017-02-26T14:10:30.918Z,39.14
2017-02-26T14:11:41.710Z,39.14
2017-02-26T14:12:52.004Z,39.24
2017-02-26T14:14:01.544Z,39.24
2017-02-26T14:15:11.823Z,39.43
2017-02-26T14:16:22.502Z,39.24
2017-02-26T14:17:33.906Z,39.14
2017-02-26T14:18:43.392Z,39.34
2017-02-26T14:19:54.056Z,39.43
2017-02-26T14:21:04.335Z,39.34
2017-02-26T14:22:14.627Z,39.24
2017-02-26T14:23:25.135Z,39.43
2017-02-26T14:24:35.796Z,39.34
2017-02-26T14:25:46.084Z,39.14
2017-02-26T14:26:55.996Z,39.53
2017-02-26T14:28:05.894Z,39.24
2017-02-26T14:29:16.334Z,39.34
2017-02-26T14:30:26.981Z,39.43
2017-02-26T14:31:37.642Z,39.43
2017-02-26T14:32:47.907Z,39.53
2017-02-26T14:33:58.579Z,39.53
2017-02-26T14:35:09.591Z,39.53
2017-02-26T14:36:20.263Z,39.43
2017-02-26T14:37:30.144Z,39.14
2017-02-26T14:38:39.252Z,39.53
2017-02-26T14:39:49.535Z,39.14
2017-02-26T14:41:00.051Z,39.14
2017-02-26T14:42:09.940Z,39.43
2017-02-26T14:43:20.221Z,39.24
2017-02-26T14:44:30.484Z,39.24
2017-02-26T14:45:40.744Z,39.24
2017-02-26T14:46:50.904Z,39.14
2017-02-26T14:48:01.166Z,39.53
2017-02-26T14:49:11.865Z,39.53
2017-02-26T14:50:22.185Z,39.53
2017-02-26T14:51:32.476Z,39.53
2017-02-26T14:52:43.508Z,39.62
2017-02-26T14:53:53.404Z,39.72
2017-02-26T14:55:03.827Z,39.72
2017-02-26T14:56:14.231Z,39.72
2017-02-26T14:57:24.147Z,39.53
2017-02-26T14:58:34.782Z,39.91
2017-02-26T14:59:45.459Z,39.91
2017-02-26T15:00:55.386Z,39.72
2017-02-26T15:02:06.054Z,39.82
2017-02-26T15:03:16.328Z,39.72
2017-02-26T15:04:26.317Z,39.72
2017-02-26T15:05:36.979Z,39.72
2017-02-26T15:06:47.640Z,39.72